createdAt,value
2016-02-10T07:51:24.973Z,18.1
2016-02-10T07:51:35.536Z,18.2
2016-02-10T07:51:45.005Z,18.1
2016-02-10T07:51:55.130Z,18.2
2016-02-10T07:52:05.098Z,18.1
2016-02-10T07:52:15.161Z,18.2
2016-02-10T07:52:25.116Z,18.2
2016-02-10T07:52:35.147Z,18.2
2016-02-10T07:52:45.350Z,18.3
2016-02-10T07:52:55.257Z,18.3
2016-02-10T07:53:05.225Z,18.3
2016-02-10T07:53:15.335Z,18.3
2016-02-10T07:53:25.291Z,18.3
2016-02-10T07:53:35.275Z,18.4
2016-02-10T07:53:45.322Z,18.5
2016-02-10T07:53:55.369Z,18.5
2016-02-10T07:54:05.806Z,18.5
2016-02-10T07:54:15.978Z,18.6
2016-02-10T07:54:25.434Z,18.6
2016-02-10T07:54:35.466Z,18.6
2016-02-10T07:55:04.388Z,18.7
2016-02-10T07:55:14.638Z,18.6
2016-02-10T07:55:24.327Z,18.6
2016-02-10T07:55:34.405Z,18.6
2016-02-10T07:55:44.858Z,18.6
2016-02-10T07:55:54.436Z,18.7
2016-02-10T07:56:04.515Z,18.7
2016-02-10T07:56:14.546Z,18.7
2016-02-10T07:56:24.877Z,18.7
2016-02-10T07:56:34.580Z,18.8
2016-02-10T07:56:47.971Z,18.7
2016-02-10T07:56:55.549Z,18.9
2016-02-10T07:57:05.986Z,18.8
2016-02-10T07:57:15.314Z,18.8
2016-02-10T07:57:25.738Z,18.9
2016-02-10T07:57:35.926Z,18.9
2016-02-10T07:57:45.379Z,18.9
2016-02-10T07:57:55.395Z,19
2016-02-10T07:58:05.457Z,18.9
2016-02-10T07:58:16.426Z,19
2016-02-10T07:58:25.523Z,19
2016-02-10T07:58:36.288Z,19
2016-02-10T07:58:45.554Z,19.1
2016-02-10T07:58:55.554Z,19
2016-02-10T07:59:05.569Z,19.2
2016-02-10T07:59:15.585Z,19.2
2016-02-10T07:59:26.821Z,19.1
2016-02-10T07:59:35.650Z,19.3
2016-02-10T07:59:45.728Z,19.2
2016-02-10T07:59:56.134Z,19.2
2016-02-10T08:00:06.165Z,19.3
2016-02-10T08:00:15.775Z,19.3
2016-02-10T08:00:26.200Z,19.3
2016-02-10T08:00:35.779Z,19.4
2016-02-10T08:00:46.294Z,19.3
2016-02-10T08:00:56.779Z,19.4
2016-02-10T08:01:06.794Z,19.3
2016-02-10T08:01:16.966Z,19.3
2016-02-10T08:01:29.890Z,19.3
2016-02-10T08:01:40.296Z,19.3
2016-02-10T08:01:48.765Z,19.4
2016-02-10T08:01:59.656Z,19.3
2016-02-10T08:02:09.546Z,19.4
2016-02-10T08:02:18.952Z,19.4
2016-02-10T08:02:28.768Z,19.4
2016-02-10T08:02:38.971Z,19.4
2016-02-10T08:02:52.723Z,19.4
2016-02-10T08:03:03.082Z,19.4
2016-02-10T08:03:14.911Z,19.5
2016-02-10T08:03:24.054Z,19.4
2016-02-10T08:03:34.429Z,19.5
2016-02-10T08:03:44.039Z,19.5
2016-02-10T08:03:54.132Z,19.5
2016-02-10T08:04:04.101Z,19.5
2016-02-10T08:04:14.179Z,19.4
2016-02-10T08:04:24.181Z,19.4
2016-02-10T08:04:34.166Z,19.4
2016-02-10T08:04:44.728Z,19.4
2016-02-10T08:04:54.650Z,19.5
2016-02-10T08:05:04.197Z,19.5
2016-02-10T08:05:14.259Z,19.5
2016-02-10T08:05:24.231Z,19.5
2016-02-10T08:05:34.840Z,19.5
2016-02-10T08:05:44.264Z,19.5
2016-02-10T08:05:54.295Z,19.5
2016-02-10T08:06:04.717Z,19.5
2016-02-10T08:06:17.389Z,19.5
2016-02-10T08:06:24.705Z,19.5
2016-02-10T08:06:34.752Z,19.5
2016-02-10T08:06:45.861Z,19.6
2016-02-10T08:06:55.720Z,19.5
2016-02-10T08:07:05.220Z,19.6
2016-02-10T08:07:15.486Z,19.4
2016-02-10T08:07:24.832Z,19.5
2016-02-10T08:07:35.316Z,19.5
2016-02-10T08:07:44.847Z,19.6
2016-02-10T08:07:55.332Z,19.6
2016-02-10T08:08:04.879Z,19.6
2016-02-10T08:08:14.894Z,19.5
2016-02-10T08:08:24.928Z,19.7
2016-02-10T08:08:34.975Z,19.7
2016-02-10T08:08:48.538Z,19.7
2016-02-10T08:08:57.038Z,19.7
2016-02-10T08:09:07.225Z,19.7
2016-02-10T08:09:16.538Z,19.7
2016-02-10T08:09:26.603Z,19.6
2016-02-10T08:09:36.400Z,19.6
2016-02-10T08:09:47.088Z,19.7
2016-02-10T08:09:56.322Z,19.8
2016-02-10T08:10:06.010Z,19.7
2016-02-10T08:10:16.306Z,19.8
2016-02-10T08:10:26.091Z,19.7
2016-02-10T08:10:36.122Z,19.8
2016-02-10T08:10:46.497Z,19.7
2016-02-10T08:10:56.200Z,19.7
2016-02-10T08:11:06.169Z,19.8
2016-02-10T08:11:17.184Z,19.8
2016-02-10T08:11:27.061Z,19.7
2016-02-10T08:11:36.811Z,19.8
2016-02-10T08:11:46.655Z,19.8
2016-02-10T08:11:56.296Z,19.8
2016-02-10T08:12:06.327Z,19.9
2016-02-10T08:12:16.796Z,19.8
2016-02-10T08:12:27.002Z,19.8
2016-02-10T08:12:36.893Z,19.8
2016-02-10T08:12:46.564Z,19.9
2016-02-10T08:12:56.455Z,19.8
2016-02-10T08:13:06.486Z,19.8
2016-02-10T08:13:16.502Z,19.8
2016-02-10T08:13:26.926Z,19.8
2016-02-10T08:13:36.566Z,19.8
2016-02-10T08:13:47.504Z,19.7
2016-02-10T08:13:56.988Z,19.8
2016-02-10T08:14:07.054Z,19.8
2016-02-10T08:14:17.163Z,19.8
2016-02-10T08:14:26.713Z,19.8
2016-02-10T08:14:40.666Z,19.8
2016-02-10T08:14:48.463Z,19.8
2016-02-10T08:14:58.026Z,19.9
2016-02-10T08:15:08.229Z,19.9
2016-02-10T08:15:18.479Z,19.9
2016-02-10T08:15:28.075Z,19.9
2016-02-10T08:15:38.794Z,19.9
2016-02-10T08:15:49.232Z,19.9
2016-02-10T08:18:14.065Z,19.9
2016-02-10T08:18:23.630Z,19.9
2016-02-10T08:18:33.615Z,19.9
2016-02-10T08:18:43.662Z,19.8
2016-02-10T08:18:54.505Z,19.9
2016-02-10T08:19:04.245Z,19.9
2016-02-10T08:19:13.713Z,19.6
2016-02-10T08:19:24.373Z,19.9
2016-02-10T08:19:34.263Z,19.8
2016-02-10T08:19:43.873Z,19.7
2016-02-10T08:19:53.857Z,19.8
2016-02-10T08:20:03.857Z,19.7
2016-02-10T08:20:13.951Z,19.8
2016-02-10T08:20:28.656Z,19.7
2016-02-10T08:20:36.359Z,19.7
2016-02-10T08:20:46.406Z,19.7
2016-02-10T08:20:56.625Z,19.8
2016-02-10T08:21:06.015Z,19.8
2016-02-10T08:21:16.562Z,19.7
2016-02-10T08:21:26.081Z,19.8
2016-02-10T08:21:36.096Z,19.7
2016-02-10T08:21:46.112Z,19.8
2016-02-10T08:21:56.440Z,19.7
2016-02-10T08:22:06.174Z,19.8
2016-02-10T08:22:16.237Z,19.7
2016-02-10T08:22:26.272Z,19.8
2016-02-10T08:22:36.272Z,19.7
2016-02-10T08:22:46.803Z,19.7
2016-02-10T08:22:56.257Z,19.8
2016-02-10T08:23:06.413Z,19.7
2016-02-10T08:23:17.225Z,19.8
2016-02-10T08:23:26.774Z,19.8
2016-02-10T08:23:36.384Z,19.7
2016-02-10T08:23:46.555Z,19.8
2016-02-10T08:23:56.462Z,19.7
2016-02-10T08:24:06.430Z,19.8
2016-02-10T08:24:17.227Z,19.8
2016-02-10T08:24:26.996Z,19.8
2016-02-10T08:24:36.543Z,19.7
2016-02-10T08:24:46.543Z,19.8
2016-02-10T08:24:56.574Z,19.8
2016-02-10T08:25:06.652Z,19.8
2016-02-10T08:25:16.621Z,19.8
2016-02-10T08:25:27.499Z,19.8
2016-02-10T08:25:38.436Z,19.8
2016-02-10T08:25:47.405Z,19.7
2016-02-10T08:25:58.218Z,19.8
2016-02-10T08:26:06.733Z,19.8
2016-02-10T08:26:16.749Z,19.8
2016-02-10T08:26:27.157Z,19.8
2016-02-10T08:26:37.438Z,19.8
2016-02-10T08:26:47.235Z,19.8
2016-02-10T08:26:58.704Z,19.8
2016-02-10T08:27:11.126Z,19.8
2016-02-10T08:27:19.676Z,19.9
2016-02-10T08:27:32.707Z,19.8
2016-02-10T08:27:40.051Z,19.9
2016-02-10T08:27:50.832Z,19.9
2016-02-10T08:28:00.505Z,19.9
2016-02-10T08:28:11.427Z,19.9
2016-02-10T08:28:22.164Z,19.9
2016-02-10T08:28:32.836Z,19.8
2016-02-10T08:28:45.852Z,19.9
2016-02-10T08:28:53.695Z,19.9
2016-02-10T08:29:03.273Z,19.8
2016-02-10T08:29:13.836Z,19.9
2016-02-10T08:29:23.322Z,19.9
2016-02-10T08:29:33.338Z,19.9
2016-02-10T08:29:43.400Z,19.8
2016-02-10T08:29:53.400Z,19.8
2016-02-10T08:30:03.854Z,19.8
2016-02-10T08:30:13.463Z,19.9
2016-02-10T08:30:23.497Z,19.9
2016-02-10T08:30:33.528Z,19.9
2016-02-10T08:30:43.983Z,19.8
2016-02-10T08:30:56.123Z,19.9
2016-02-10T08:31:03.576Z,19.9
2016-02-10T08:31:13.608Z,19.8
2016-02-10T08:31:23.642Z,19.9
2016-02-10T08:31:34.126Z,19.8
2016-02-10T08:31:43.704Z,19.9
2016-02-10T08:31:53.736Z,19.8
2016-02-10T08:32:04.829Z,19.9
2016-02-10T08:32:13.782Z,19.9
2016-02-10T08:32:23.941Z,19.8
2016-02-10T08:32:33.909Z,19.9
2016-02-10T08:32:43.878Z,19.9
2016-02-10T08:32:53.909Z,19.9
2016-02-10T08:33:04.378Z,19.8
2016-02-10T08:33:14.113Z,19.9
2016-02-10T08:33:24.023Z,19.9
2016-02-10T08:33:34.023Z,19.8
2016-02-10T08:33:43.992Z,19.9
2016-02-10T08:33:54.023Z,19.9
2016-02-10T08:34:04.070Z,19.8
2016-02-10T08:34:14.117Z,19.8
2016-02-10T08:34:24.603Z,19.9
2016-02-10T08:34:35.259Z,19.9
2016-02-10T08:34:45.150Z,19.9
2016-02-10T08:34:54.181Z,20
2016-02-10T08:35:04.212Z,19.9
2016-02-10T08:35:14.275Z,19.9
2016-02-10T08:35:24.261Z,19.9
2016-02-10T08:35:34.855Z,19.9
2016-02-10T08:35:44.355Z,19.9
2016-02-10T08:35:54.324Z,19.9
2016-02-10T08:36:04.464Z,20
2016-02-10T08:36:14.433Z,19.9
2016-02-10T08:36:24.390Z,19.9
2016-02-10T08:36:34.468Z,19.9
2016-02-10T08:36:44.531Z,20
2016-02-10T08:36:54.953Z,20
2016-02-10T08:37:04.609Z,20
2016-02-10T08:37:14.484Z,19.9
2016-02-10T08:37:27.470Z,20
2016-02-10T08:37:34.814Z,20
2016-02-10T08:37:44.845Z,20
2016-02-10T08:37:54.861Z,20
2016-02-10T08:38:04.955Z,20
2016-02-10T08:38:15.361Z,19.9
2016-02-10T08:38:25.114Z,20
2016-02-10T08:38:35.473Z,20
2016-02-10T08:38:45.067Z,19.9
2016-02-10T08:38:55.239Z,20.1
2016-02-10T08:39:06.443Z,20
2016-02-10T08:39:15.052Z,19.9
2016-02-10T08:39:25.243Z,20
2016-02-10T08:39:35.196Z,20
2016-02-10T08:39:45.384Z,20.1
2016-02-10T08:39:55.274Z,20
2016-02-10T08:40:05.274Z,20.1
2016-02-10T08:40:15.680Z,20.1
2016-02-10T08:40:25.714Z,20.1
2016-02-10T08:40:35.417Z,20
2016-02-10T08:40:45.964Z,20.1
2016-02-10T08:40:55.495Z,20.1
2016-02-10T08:41:05.511Z,20.1
2016-02-10T08:41:15.542Z,20.1
2016-02-10T08:41:25.575Z,20
2016-02-10T08:41:35.638Z,20
2016-02-10T08:41:45.622Z,20.1
2016-02-10T08:41:55.684Z,20
2016-02-10T08:42:08.669Z,20.1
2016-02-10T08:42:16.013Z,20.1
2016-02-10T08:42:26.031Z,20.1
2016-02-10T08:42:36.016Z,19.9
2016-02-10T08:42:46.047Z,20
2016-02-10T08:42:56.766Z,20.1
2016-02-10T08:43:06.516Z,20
2016-02-10T08:43:16.187Z,20.1
2016-02-10T08:43:26.222Z,20.1
2016-02-10T08:43:36.206Z,20.1
2016-02-10T08:43:46.300Z,20.2
2016-02-10T08:44:15.206Z,20.1
2016-02-10T08:44:25.272Z,20.2
2016-02-10T08:44:35.256Z,20.2
2016-02-10T08:44:45.273Z,20.1
2016-02-10T08:44:55.835Z,20.1
2016-02-10T08:45:05.319Z,20.1
2016-02-10T08:45:15.351Z,20.1
2016-02-10T08:45:25.446Z,20
2016-02-10T08:45:35.446Z,20.1
2016-02-10T08:45:45.446Z,20.2
2016-02-10T08:45:55.978Z,20.2
2016-02-10T08:52:20.097Z,19.7
2016-02-10T08:52:29.832Z,19.8
2016-02-10T08:52:40.394Z,19.7
2016-02-10T08:52:49.941Z,19.8
2016-02-10T08:52:59.894Z,19.7
2016-02-10T08:53:10.504Z,19.7
2016-02-10T08:53:20.600Z,19.7
2016-02-10T08:53:30.022Z,19.7
2016-02-10T08:53:40.163Z,19.8
2016-02-10T08:53:50.069Z,19.7
2016-02-10T08:54:00.663Z,19.7
2016-02-10T08:54:10.163Z,19.8
2016-02-10T08:54:21.478Z,19.8
2016-02-10T08:54:30.228Z,19.8
2016-02-10T08:54:40.213Z,19.8
2016-02-10T08:54:50.760Z,19.8
2016-02-10T08:55:00.806Z,19.8
2016-02-10T08:55:10.369Z,19.8
2016-02-10T08:55:40.308Z,19.8
2016-02-10T08:55:49.559Z,19.9
2016-02-10T08:55:59.591Z,19.9
2016-02-10T08:56:10.169Z,19.9
2016-02-10T08:56:20.234Z,20
2016-02-10T08:56:30.312Z,20
2016-02-10T08:56:40.281Z,20
2016-02-10T08:56:49.703Z,20
2016-02-10T08:57:00.187Z,20.1
2016-02-10T08:57:09.797Z,20.1
2016-02-10T08:57:19.797Z,20.1
2016-02-10T08:57:29.815Z,20.2
2016-02-10T08:57:39.972Z,20.2
2016-02-10T08:57:50.347Z,20.3
2016-02-10T08:58:20.225Z,20.3
2016-02-10T08:58:29.725Z,20.3
2016-02-10T08:58:39.818Z,20.4
2016-02-10T08:58:49.787Z,20.4
2016-02-10T08:59:00.240Z,20.5
2016-02-10T08:59:10.256Z,20.4
2016-02-10T08:59:19.850Z,20.5
2016-02-10T08:59:30.305Z,20.4
2016-02-10T08:59:40.320Z,20.4
2016-02-10T08:59:49.898Z,20.5
2016-02-10T08:59:59.961Z,20.6
2016-02-10T09:00:10.914Z,20.5
2016-02-10T09:00:20.448Z,20.5
2016-02-10T09:00:30.480Z,20.5
2016-02-10T09:00:39.995Z,20.6
2016-02-10T09:00:51.089Z,20.6
2016-02-10T09:01:00.058Z,20.5
2016-02-10T09:01:10.480Z,20.5
2016-02-10T09:01:20.202Z,20.5
2016-02-10T09:01:30.124Z,20.6
2016-02-10T09:01:40.155Z,20.5
2016-02-10T09:01:50.218Z,20.6
2016-02-10T09:02:00.202Z,20.6
2016-02-10T09:02:10.280Z,20.6
2016-02-10T09:02:20.704Z,20.6
2016-02-10T09:02:30.251Z,20.6
2016-02-10T09:02:40.314Z,20.5
2016-02-10T09:02:50.704Z,20.5
2016-02-10T09:03:00.798Z,20.6
2016-02-10T09:03:10.423Z,20.6
2016-02-10T09:03:20.801Z,20.6
2016-02-10T09:03:30.442Z,20.7
2016-02-10T09:03:40.504Z,20.7
2016-02-10T09:03:51.067Z,20.6
2016-02-10T09:04:00.520Z,20.7
2016-02-10T09:04:11.098Z,20.6
2016-02-10T09:04:21.412Z,20.7
2016-02-10T09:04:30.584Z,20.7
2016-02-10T09:04:41.241Z,20.7
2016-02-10T09:04:50.678Z,20.7
2016-02-10T09:05:01.162Z,20.6
2016-02-10T09:05:11.209Z,20.5
2016-02-10T09:05:20.713Z,20.7
2016-02-10T09:05:31.620Z,20.7
2016-02-10T09:05:40.729Z,20.6
2016-02-10T09:05:50.760Z,20.6
2016-02-10T09:06:00.760Z,20.7
2016-02-10T09:06:11.291Z,20.7
2016-02-10T09:06:20.778Z,20.6
2016-02-10T09:06:31.372Z,20.7
2016-02-10T09:06:40.809Z,20.7
2016-02-10T09:06:50.872Z,20.7
2016-02-10T09:07:01.418Z,20.6
2016-02-10T09:07:10.950Z,20.7
2016-02-10T09:07:21.328Z,20.7
2016-02-10T09:07:31.328Z,20.8
2016-02-10T09:07:40.968Z,20.7
2016-02-10T09:07:51.046Z,20.8
2016-02-10T09:08:02.515Z,20.7
2016-02-10T09:08:12.390Z,20.7
2016-02-10T09:08:24.877Z,20.8
2016-02-10T09:08:32.189Z,20.7
2016-02-10T09:08:43.861Z,20.7
2016-02-10T09:08:52.236Z,20.7
2016-02-10T09:09:02.783Z,20.8
2016-02-10T09:09:13.205Z,20.7
2016-02-10T09:09:23.239Z,20.7
2016-02-10T09:09:32.801Z,20.7
2016-02-10T09:09:42.411Z,20.7
2016-02-10T09:09:53.395Z,20.7
2016-02-10T09:10:02.989Z,20.7
2016-02-10T09:10:12.458Z,20.8
2016-02-10T09:10:22.539Z,20.8
2016-02-10T09:10:32.601Z,20.8
2016-02-10T09:10:42.961Z,20.7
2016-02-10T09:10:53.086Z,20.8
2016-02-10T09:11:02.836Z,20.8
2016-02-10T09:11:13.726Z,20.8
2016-02-10T09:11:22.947Z,20.8
2016-02-10T09:11:33.510Z,20.7
2016-02-10T09:11:43.228Z,20.7
2016-02-10T09:11:57.010Z,20.8
2016-02-10T09:12:04.338Z,20.8
2016-02-10T09:12:15.088Z,20.8
2016-02-10T09:12:25.309Z,20.9
2016-02-10T09:12:35.356Z,20.9
2016-02-10T09:12:45.341Z,20.8
2016-02-10T09:12:54.450Z,20.8
2016-02-10T09:13:05.106Z,20.8
2016-02-10T09:13:15.106Z,20.8
2016-02-10T09:13:29.187Z,20.8
2016-02-10T09:13:36.844Z,20.8
2016-02-10T09:13:46.906Z,20.9
2016-02-10T09:13:57.062Z,20.8
2016-02-10T09:14:06.891Z,20.9
2016-02-10T09:14:17.126Z,20.8
2016-02-10T09:14:28.207Z,20.7
2016-02-10T09:14:37.004Z,20.8
2016-02-10T09:14:47.707Z,20.8
2016-02-10T09:14:59.316Z,20.8
2016-02-10T09:15:10.254Z,20.9
2016-02-10T09:15:18.754Z,20.8
2016-02-10T09:15:30.178Z,20.8
2016-02-10T09:15:39.147Z,20.8
2016-02-10T09:15:50.490Z,20.8
2016-02-10T09:15:58.975Z,20.9
2016-02-10T09:16:08.787Z,20.8
2016-02-10T09:16:18.756Z,20.9
2016-02-10T09:16:29.978Z,20.9
2016-02-10T09:16:39.821Z,20.9
2016-02-10T09:16:49.431Z,20.9
2016-02-10T09:17:00.462Z,20.9
2016-02-10T09:17:09.603Z,21
2016-02-10T09:17:20.384Z,20.9
2016-02-10T09:17:31.292Z,21
2016-02-10T09:17:41.323Z,21
2016-02-10T09:17:51.308Z,21
2016-02-10T09:18:01.777Z,21
2016-02-10T09:18:11.823Z,21
2016-02-10T09:18:21.451Z,20.9
2016-02-10T09:18:31.483Z,21
2016-02-10T09:18:41.483Z,21
2016-02-10T09:18:51.561Z,21
2016-02-10T09:19:02.014Z,21
2016-02-10T09:19:11.561Z,21
2016-02-10T09:19:22.970Z,21
2016-02-10T09:19:31.611Z,21
2016-02-10T09:19:41.720Z,21
2016-02-10T09:19:51.626Z,21.1
2016-02-10T09:20:01.658Z,21
2016-02-10T09:20:12.021Z,21.1
2016-02-10T09:20:21.648Z,21
2016-02-10T09:20:32.195Z,21.1
2016-02-10T09:20:42.304Z,21
2016-02-10T09:20:51.773Z,21
2016-02-10T09:21:01.821Z,21
2016-02-10T09:21:12.727Z,21.1
2016-02-10T09:21:21.917Z,21.1
2016-02-10T09:21:32.339Z,21.2
2016-02-10T09:21:44.917Z,21.1
2016-02-10T09:21:52.792Z,21.2
2016-02-10T09:22:02.777Z,21.1
2016-02-10T09:22:12.339Z,21.1
2016-02-10T09:22:23.342Z,21.1
2016-02-10T09:22:32.405Z,21
2016-02-10T09:22:43.280Z,21
2016-02-10T09:22:54.030Z,21.1
2016-02-10T09:23:03.952Z,21.1
2016-02-10T09:23:14.889Z,21.1
2016-02-10T09:23:25.266Z,21.1
2016-02-10T09:23:35.219Z,21.2
2016-02-10T09:23:45.360Z,21.1
2016-02-10T09:23:54.954Z,21.1
2016-02-10T09:24:05.016Z,21.2
2016-02-10T09:24:15.094Z,21.2
2016-02-10T09:24:25.004Z,21.2
2016-02-10T09:24:35.519Z,21.1
2016-02-10T09:24:45.472Z,21.1
2016-02-10T09:24:55.097Z,21.2
2016-02-10T09:25:05.300Z,21.2
2016-02-10T09:25:15.644Z,21.1
2016-02-10T09:25:25.147Z,21.1
2016-02-10T09:25:35.178Z,21.2
2016-02-10T09:25:46.147Z,21.2
2016-02-10T09:25:55.663Z,21.2
2016-02-10T09:26:05.632Z,21.2
2016-02-10T09:26:15.272Z,21.2
2016-02-10T09:26:25.306Z,21.2
2016-02-10T09:26:35.806Z,21.2
2016-02-10T09:26:46.041Z,21.2
2016-02-10T09:26:55.416Z,21.3
2016-02-10T09:27:05.947Z,21.2
2016-02-10T09:27:15.494Z,21.2
2016-02-10T09:27:25.513Z,21.3
2016-02-10T09:27:35.528Z,21.2
2016-02-10T09:27:45.559Z,21.3
2016-02-10T09:27:55.591Z,21.2
2016-02-10T09:28:05.606Z,21.4
2016-02-10T09:28:15.591Z,21.4
2016-02-10T09:28:25.686Z,21.3
2016-02-10T09:28:35.733Z,21.3
2016-02-10T09:28:45.733Z,21.3
2016-02-10T09:28:55.765Z,21.4
2016-02-10T09:29:05.858Z,21.3
2016-02-10T09:29:16.030Z,21.4
2016-02-10T09:29:26.220Z,21.3
2016-02-10T09:29:36.485Z,21.4
2016-02-10T09:29:46.173Z,21.4
2016-02-10T09:29:55.938Z,21.3
2016-02-10T09:30:05.970Z,21.4
2016-02-10T09:30:15.938Z,21.4
2016-02-10T09:30:26.567Z,21.3
2016-02-10T09:30:35.974Z,21.4
2016-02-10T09:30:46.067Z,21.4
2016-02-10T09:30:56.052Z,21.3
2016-02-10T09:31:06.114Z,21.4
2016-02-10T09:31:16.130Z,21.4
2016-02-10T09:31:26.616Z,21.4
2016-02-10T09:31:36.194Z,21.3
2016-02-10T09:31:46.241Z,21.4
2016-02-10T09:31:56.585Z,21.3
2016-02-10T09:32:06.242Z,21.3
2016-02-10T09:32:16.633Z,21.4
2016-02-10T09:32:26.245Z,21.4
2016-02-10T09:32:36.292Z,21.4
2016-02-10T09:32:46.355Z,21.4
2016-02-10T09:32:56.433Z,21.4
2016-02-10T09:33:07.542Z,21.4
2016-02-10T09:33:17.073Z,21.4
2016-02-10T09:33:26.514Z,21.5
2016-02-10T09:33:36.545Z,21.5
2016-02-10T09:33:47.873Z,21.4
2016-02-10T09:33:56.670Z,21.5
2016-02-10T09:34:06.623Z,21.3
2016-02-10T09:34:16.717Z,21.4
2016-02-10T09:34:26.719Z,21.4
2016-02-10T09:34:37.297Z,21.4
2016-02-10T09:34:47.141Z,21.4
2016-02-10T09:34:56.797Z,21.4
2016-02-10T09:35:06.828Z,21.5
2016-02-10T09:35:16.844Z,21.5
2016-02-10T09:35:26.894Z,21.4
2016-02-10T09:35:37.800Z,21.5
2016-02-10T09:35:46.988Z,21.5
2016-02-10T09:35:57.253Z,21.5
2016-02-10T09:36:06.988Z,21.5
2016-02-10T09:36:17.488Z,21.5
2016-02-10T09:36:27.209Z,21.5
2016-02-10T09:36:37.928Z,21.4
2016-02-10T09:36:47.116Z,21.5
2016-02-10T09:36:58.100Z,21.5
2016-02-10T09:37:07.131Z,21.5
2016-02-10T09:37:17.678Z,21.5
2016-02-10T09:37:27.727Z,21.5
2016-02-10T09:37:41.321Z,21.5
2016-02-10T09:37:52.821Z,21.5
2016-02-10T09:38:02.446Z,21.5
2016-02-10T09:38:12.274Z,21.5
2016-02-10T09:38:22.308Z,21.5
2016-02-10T09:38:32.339Z,21.5
2016-02-10T09:38:42.855Z,21.5
2016-02-10T09:38:52.652Z,21.5
2016-02-10T09:39:02.855Z,21.5
2016-02-10T09:39:12.761Z,21.5
2016-02-10T09:39:22.888Z,21.5
2016-02-10T09:39:32.388Z,21.5
2016-02-10T09:39:42.435Z,21.6
2016-02-10T09:39:53.888Z,21.6
2016-02-10T09:40:02.466Z,21.6
2016-02-10T09:40:12.670Z,21.5
2016-02-10T09:40:23.111Z,21.5
2016-02-10T09:40:33.017Z,21.6
2016-02-10T09:41:02.220Z,21.6
2016-02-10T09:41:11.908Z,21.5
2016-02-10T09:41:22.411Z,21.7
2016-02-10T09:41:32.348Z,21.5
2016-02-10T09:41:42.052Z,21.6
2016-02-10T09:41:52.052Z,21.5
2016-02-10T09:42:02.411Z,21.6
2016-02-10T09:42:12.161Z,21.6
2016-02-10T09:42:22.147Z,21.5
2016-02-10T09:42:32.163Z,21.5
2016-02-10T09:42:42.288Z,21.5
2016-02-10T09:42:52.241Z,21.6
2016-02-10T09:43:02.913Z,21.5
2016-02-10T09:43:12.491Z,21.5
2016-02-10T09:43:22.400Z,21.5
2016-02-10T09:43:32.385Z,21.5
2016-02-10T09:43:42.666Z,21.5
2016-02-10T09:43:53.728Z,21.6
2016-02-10T09:44:02.650Z,21.5
2016-02-10T09:44:31.903Z,21.5
2016-02-10T09:44:42.060Z,21.6
2016-02-10T09:44:52.013Z,21.6
2016-02-10T09:45:02.060Z,21.6
2016-02-10T09:45:11.981Z,21.5
2016-02-10T09:45:22.563Z,21.6
2016-02-10T09:45:32.078Z,21.6
2016-02-10T09:45:42.563Z,21.6
2016-02-10T09:45:52.469Z,21.6
2016-02-10T09:46:02.109Z,21.5
2016-02-10T09:46:12.125Z,21.6
2016-02-10T09:46:22.643Z,21.5
2016-02-10T09:46:32.111Z,21.5
2016-02-10T09:46:42.174Z,21.6
2016-02-10T09:46:52.205Z,21.6
2016-02-10T09:47:02.190Z,21.6
2016-02-10T09:47:12.190Z,21.6
2016-02-10T09:47:22.833Z,21.5
2016-02-10T09:47:32.927Z,21.6
2016-02-10T09:47:43.318Z,21.5
2016-02-10T09:47:52.958Z,21.6
2016-02-10T09:48:02.802Z,21.5
2016-02-10T09:48:12.411Z,21.5
2016-02-10T09:48:23.273Z,21.6
2016-02-10T09:48:32.866Z,21.5
2016-02-10T09:48:42.884Z,21.5
2016-02-10T09:48:54.353Z,21.6
2016-02-10T09:49:03.071Z,21.5
2016-02-10T09:49:13.743Z,21.5
2016-02-10T09:49:23.482Z,21.5
2016-02-10T09:49:33.075Z,21.6
2016-02-10T09:49:43.935Z,21.5
2016-02-10T09:49:52.747Z,21.6
2016-02-10T09:50:02.841Z,21.6
2016-02-10T09:50:12.779Z,21.6
2016-02-10T09:50:23.375Z,21.6
2016-02-10T09:50:32.907Z,21.5
2016-02-10T09:50:43.219Z,21.6
2016-02-10T09:50:53.000Z,21.6
2016-02-10T09:51:03.563Z,21.5
2016-02-10T09:51:13.141Z,21.6
2016-02-10T09:51:23.487Z,21.5
2016-02-10T09:51:33.424Z,21.6
2016-02-10T09:51:43.955Z,21.7
2016-02-10T09:51:53.627Z,21.6
2016-02-10T09:52:03.721Z,21.5
2016-02-10T09:52:13.143Z,21.5
